createdAt,value
2023-04-15T00:00:37.943Z,85.33
2023-04-15T00:01:41.069Z,84.95
2023-04-15T00:02:45.545Z,85.35
2023-04-15T00:03:49.334Z,85.31
2023-04-15T00:04:53.093Z,85.16
2023-04-15T00:05:56.312Z,84.56
2023-04-15T00:07:00.113Z,84.33
2023-04-15T00:08:03.172Z,84.81
2023-04-15T00:09:06.543Z,85.04
2023-04-15T00:10:10.344Z,85.33
2023-04-15T00:11:13.951Z,85.27
2023-04-15T00:12:17.109Z,85.45
2023-04-15T00:13:21.220Z,85.45
2023-04-15T00:14:24.160Z,85.55
2023-04-15T00:15:28.103Z,85.46
2023-04-15T00:16:31.690Z,85.59
2023-04-15T00:17:35.193Z,85.31
2023-04-15T00:18:38.933Z,85.47
2023-04-15T00:19:42.841Z,85.40
2023-04-15T00:20:46.239Z,85.26
2023-04-15T00:21:49.518Z,85.34
2023-04-15T00:22:53.444Z,85.43
2023-04-15T00:23:57.437Z,85.40
2023-04-15T00:25:00.679Z,85.37
2023-04-15T00:26:16.574Z,85.60
2023-04-15T00:27:20.612Z,85.52
2023-04-15T00:28:23.958Z,85.30
2023-04-15T00:29:27.543Z,85.37
2023-04-15T00:30:31.369Z,85.01
2023-04-15T00:31:34.997Z,85.19
2023-04-15T00:32:38.084Z,84.81
2023-04-15T00:33:41.355Z,84.78
2023-04-15T00:34:44.506Z,84.77
2023-04-15T00:35:48.548Z,85.13
2023-04-15T00:36:52.729Z,85.31
2023-04-15T00:37:56.218Z,85.41
2023-04-15T00:38:59.495Z,85.74
2023-04-15T00:40:03.310Z,85.68
2023-04-15T00:41:06.523Z,85.72
2023-04-15T00:42:10.244Z,85.87
2023-04-15T00:43:13.753Z,85.90
2023-04-15T00:44:17.344Z,86.03
2023-04-15T00:45:20.814Z,86.34
2023-04-15T00:46:23.898Z,86.44
2023-04-15T00:47:27.784Z,86.42
2023-04-15T00:48:31.182Z,86.41
2023-04-15T00:49:34.536Z,86.17
2023-04-15T00:50:38.244Z,86.62
2023-04-15T00:51:41.549Z,86.68
2023-04-15T00:52:45.207Z,86.55
2023-04-15T00:53:48.384Z,86.63
2023-04-15T00:54:53.442Z,86.72
2023-04-15T00:55:56.782Z,86.78
2023-04-15T00:57:00.118Z,86.79
2023-04-15T00:58:03.297Z,86.90
2023-04-15T00:59:09.795Z,86.75
2023-04-15T01:00:13.657Z,86.82
2023-04-15T01:01:16.805Z,86.68
2023-04-15T01:02:20.566Z,86.61
2023-04-15T01:03:23.981Z,86.99
2023-04-15T01:04:27.244Z,86.92
2023-04-15T01:05:31.265Z,87.05
2023-04-15T01:06:34.660Z,86.78
2023-04-15T01:07:37.726Z,86.89
2023-04-15T01:08:41.106Z,86.71
2023-04-15T01:09:44.331Z,86.44
2023-04-15T01:10:47.661Z,86.66
2023-04-15T01:11:50.836Z,86.86
2023-04-15T01:12:54.024Z,86.96
2023-04-15T01:14:00.507Z,86.95
2023-04-15T01:15:03.535Z,86.80
2023-04-15T01:16:07.385Z,86.89
2023-04-15T01:17:11.070Z,86.86
2023-04-15T01:18:16.415Z,87.19
2023-04-15T01:19:19.874Z,87.07
2023-04-15T01:20:23.545Z,87.07
2023-04-15T01:21:27.241Z,87.17
2023-04-15T01:22:30.520Z,87.05
2023-04-15T01:23:33.787Z,87.10
2023-04-15T01:24:36.991Z,86.99
2023-04-15T01:25:39.977Z,86.92
2023-04-15T01:26:44.587Z,87.18
2023-04-15T01:27:48.322Z,87.42
2023-04-15T01:28:52.426Z,86.80
2023-04-15T01:29:57.679Z,86.45
2023-04-15T01:31:10.328Z,86.91
2023-04-15T01:32:13.609Z,87.28
2023-04-15T01:33:35.369Z,87.15
2023-04-15T01:34:57.618Z,87.16
2023-04-15T01:36:19.196Z,87.32
2023-04-15T01:37:22.776Z,87.49
2023-04-15T01:38:27.748Z,87.12
2023-04-15T01:39:30.769Z,86.84
2023-04-15T01:40:34.369Z,86.81
2023-04-15T01:41:38.584Z,86.75
2023-04-15T01:42:42.682Z,86.74
2023-04-15T01:43:46.935Z,86.41
2023-04-15T01:44:51.732Z,86.65
2023-04-15T01:45:57.168Z,86.63
2023-04-15T01:47:02.956Z,86.69
2023-04-15T01:48:07.846Z,86.34
2023-04-15T01:49:15.360Z,86.18
2023-04-15T01:50:20.023Z,86.28
2023-04-15T01:51:25.797Z,86.20
2023-04-15T01:52:30.051Z,86.43
2023-04-15T01:53:34.999Z,85.97
2023-04-15T01:54:40.424Z,86.10
2023-04-15T01:55:44.877Z,86.57
2023-04-15T01:56:52.262Z,86.31
2023-04-15T01:57:57.330Z,85.93
2023-04-15T01:59:02.422Z,86.75
2023-04-15T02:00:12.212Z,86.92
2023-04-15T02:01:23.202Z,86.94
2023-04-15T02:02:28.636Z,86.79
2023-04-15T02:03:34.302Z,86.73
2023-04-15T02:04:38.814Z,86.76
2023-04-15T02:05:43.865Z,86.93
2023-04-15T02:06:48.294Z,87.29
2023-04-15T02:07:52.802Z,86.64
2023-04-15T02:08:57.703Z,86.50
2023-04-15T02:10:01.938Z,86.34
2023-04-15T02:11:06.465Z,86.29
2023-04-15T02:12:11.378Z,86.29
2023-04-15T02:13:17.647Z,86.11
2023-04-15T02:14:22.589Z,86.57
2023-04-15T02:15:27.222Z,86.59
2023-04-15T02:16:32.373Z,86.43
2023-04-15T02:17:37.080Z,86.39
2023-04-15T02:18:41.865Z,86.51
2023-04-15T02:19:47.500Z,86.11
2023-04-15T02:20:54.708Z,85.84
2023-04-15T02:21:59.414Z,86.20
2023-04-15T02:23:04.208Z,86.30
2023-04-15T02:24:08.996Z,86.11
2023-04-15T02:25:13.572Z,86.34
2023-04-15T02:26:18.667Z,85.98
2023-04-15T02:27:23.095Z,86.39
2023-04-15T02:28:28.542Z,86.32
2023-04-15T02:29:33.619Z,86.17
2023-04-15T02:30:38.353Z,85.83
2023-04-15T02:31:42.857Z,86.24
2023-04-15T02:32:47.620Z,86.21
2023-04-15T02:33:52.113Z,86.38
2023-04-15T02:34:56.589Z,86.48
2023-04-15T02:36:01.154Z,86.34
2023-04-15T02:37:06.576Z,86.28
2023-04-15T02:38:13.388Z,86.01
2023-04-15T02:39:19.570Z,86.14
2023-04-15T02:40:25.038Z,86.15
2023-04-15T02:41:31.076Z,85.97
2023-04-15T02:42:36.457Z,86.19
2023-04-15T02:43:41.164Z,86.54
2023-04-15T02:44:46.721Z,86.22
2023-04-15T02:45:51.853Z,86.25
2023-04-15T02:46:57.950Z,85.88
2023-04-15T02:48:07.068Z,85.78
2023-04-15T02:49:11.616Z,86.63
2023-04-15T02:50:16.588Z,86.62
2023-04-15T02:51:21.366Z,86.44
2023-04-15T02:52:26.774Z,86.36
2023-04-15T02:53:31.520Z,86.22
2023-04-15T02:54:35.902Z,85.93
2023-04-15T02:55:40.258Z,86.03
2023-04-15T02:56:44.926Z,86.50
2023-04-15T02:57:49.132Z,86.41
2023-04-15T02:58:57.057Z,86.45
2023-04-15T03:00:01.861Z,86.15
2023-04-15T03:01:08.287Z,85.83
2023-04-15T03:02:12.841Z,85.72
2023-04-15T03:03:17.542Z,85.73
2023-04-15T03:04:22.107Z,85.65
2023-04-15T03:05:26.709Z,85.94
2023-04-15T03:06:31.481Z,85.94
2023-04-15T03:07:35.972Z,86.10
2023-04-15T03:08:40.832Z,85.94
2023-04-15T03:09:46.228Z,86.25
2023-04-15T03:10:53.043Z,85.63
2023-04-15T03:11:57.590Z,85.92
2023-04-15T03:13:02.636Z,85.71
2023-04-15T03:14:07.139Z,85.78
2023-04-15T03:15:15.087Z,85.41
2023-04-15T03:16:22.949Z,85.71
2023-04-15T03:17:27.703Z,85.64
2023-04-15T03:18:32.255Z,85.87
2023-04-15T03:19:39.387Z,86.02
2023-04-15T03:20:44.317Z,85.91
2023-04-15T03:21:50.523Z,85.82
2023-04-15T03:22:54.767Z,85.64
2023-04-15T03:24:00.538Z,85.58
2023-04-15T03:25:06.221Z,85.50
2023-04-15T03:26:10.768Z,85.66
2023-04-15T03:27:15.404Z,85.51
2023-04-15T03:28:20.094Z,85.70
2023-04-15T03:29:26.664Z,85.54
2023-04-15T03:30:31.332Z,85.91
2023-04-15T03:31:36.016Z,85.58
2023-04-15T03:32:41.057Z,85.32
2023-04-15T03:33:46.226Z,85.58
2023-04-15T03:34:50.819Z,85.49
2023-04-15T03:35:55.454Z,85.82
2023-04-15T03:36:59.843Z,85.53
2023-04-15T03:38:04.338Z,85.33
2023-04-15T03:39:08.758Z,85.32
2023-04-15T03:40:13.300Z,85.45
2023-04-15T03:41:18.040Z,85.26
2023-04-15T03:42:22.875Z,86.01
2023-04-15T03:43:27.336Z,86.16
2023-04-15T03:44:32.059Z,85.87
2023-04-15T03:45:36.457Z,86.48
2023-04-15T03:46:40.809Z,86.24
2023-04-15T03:47:45.497Z,86.63
2023-04-15T03:48:49.744Z,86.73
2023-04-15T03:49:54.413Z,86.77
2023-04-15T03:50:58.858Z,86.82
2023-04-15T03:52:02.959Z,86.63
2023-04-15T03:53:07.275Z,86.79
2023-04-15T03:54:12.422Z,86.92
2023-04-15T03:55:16.784Z,86.35
2023-04-15T03:56:21.671Z,86.94
2023-04-15T03:57:26.527Z,86.66
2023-04-15T03:58:31.295Z,86.80
2023-04-15T03:59:35.798Z,86.66
2023-04-15T04:00:41.069Z,86.71
2023-04-15T04:01:46.194Z,86.81
2023-04-15T04:02:51.413Z,86.76
2023-04-15T04:03:55.779Z,86.70
2023-04-15T04:05:00.278Z,86.68
2023-04-15T04:06:05.011Z,86.81
2023-04-15T04:07:10.039Z,86.25
2023-04-15T04:08:15.073Z,85.94
2023-04-15T04:09:19.811Z,85.42
2023-04-15T04:10:24.025Z,86.67
2023-04-15T04:11:29.297Z,86.52
2023-04-15T04:12:33.972Z,86.65
2023-04-15T04:13:38.865Z,86.47
2023-04-15T04:14:43.969Z,86.95
2023-04-15T04:15:48.462Z,86.72
2023-04-15T04:16:52.834Z,86.73
2023-04-15T04:17:57.727Z,86.39
2023-04-15T04:19:02.823Z,86.12
2023-04-15T04:20:07.954Z,86.42
2023-04-15T04:21:12.583Z,86.45
2023-04-15T04:22:18.354Z,86.61
2023-04-15T04:23:22.902Z,86.03
2023-04-15T04:24:27.152Z,86.38
2023-04-15T04:25:31.528Z,86.68
2023-04-15T04:26:35.951Z,86.59
2023-04-15T04:27:40.959Z,86.75
2023-04-15T04:28:45.578Z,86.63
2023-04-15T04:29:50.598Z,86.46
2023-04-15T04:30:54.810Z,86.39
2023-04-15T04:31:59.782Z,86.55
2023-04-15T04:33:04.418Z,86.25
2023-04-15T04:34:09.484Z,86.49
2023-04-15T04:35:13.497Z,86.52
2023-04-15T04:36:17.661Z,85.99
2023-04-15T04:37:22.017Z,86.27
2023-04-15T04:38:26.845Z,85.85
2023-04-15T04:39:31.574Z,86.35
2023-04-15T04:40:35.972Z,86.38
2023-04-15T04:41:40.316Z,86.68
2023-04-15T04:42:44.451Z,86.35
2023-04-15T04:43:49.068Z,86.30
2023-04-15T04:44:53.902Z,86.32
2023-04-15T04:45:58.170Z,86.29
2023-04-15T04:47:02.995Z,85.59
2023-04-15T04:48:09.302Z,85.23
2023-04-15T04:49:13.373Z,84.90
2023-04-15T04:50:17.875Z,85.39
2023-04-15T04:51:22.495Z,85.37
2023-04-15T04:52:27.579Z,85.06
2023-04-15T04:53:31.743Z,84.85
2023-04-15T04:54:36.518Z,85.92
2023-04-15T04:55:41.212Z,85.47
2023-04-15T04:56:45.564Z,85.25
2023-04-15T04:57:50.307Z,85.06
2023-04-15T04:58:54.920Z,84.82
2023-04-15T04:59:59.269Z,84.75
2023-04-15T05:01:03.673Z,84.68
2023-04-15T05:02:08.420Z,84.58
2023-04-15T05:03:13.261Z,84.69
2023-04-15T05:04:18.257Z,84.92
2023-04-15T05:05:22.571Z,85.03
2023-04-15T05:06:27.317Z,85.22
2023-04-15T05:07:31.880Z,85.07
2023-04-15T05:08:38.092Z,84.79
2023-04-15T05:09:44.526Z,85.07
2023-04-15T05:10:49.416Z,84.89
2023-04-15T05:11:54.103Z,84.88
2023-04-15T05:12:58.311Z,85.28
2023-04-15T05:14:02.888Z,84.91
2023-04-15T05:15:07.592Z,84.66
2023-04-15T05:16:12.392Z,84.61
2023-04-15T05:17:17.018Z,84.70
2023-04-15T05:18:21.555Z,85.37
2023-04-15T05:19:26.068Z,85.12
2023-04-15T05:20:30.624Z,85.35
2023-04-15T05:21:36.666Z,85.26
2023-04-15T05:22:42.576Z,85.36
2023-04-15T05:23:47.158Z,85.54
2023-04-15T05:24:56.008Z,85.18
2023-04-15T05:26:00.864Z,85.32
2023-04-15T05:27:05.354Z,85.08
2023-04-15T05:28:09.740Z,84.66
2023-04-15T05:29:14.758Z,85.27
2023-04-15T05:30:19.270Z,85.14
2023-04-15T05:31:23.970Z,85.21
2023-04-15T05:32:29.058Z,85.21
2023-04-15T05:33:33.423Z,85.04
2023-04-15T05:34:38.021Z,85.74
2023-04-15T05:35:42.438Z,85.77
2023-04-15T05:36:46.750Z,85.68
2023-04-15T05:37:51.233Z,85.56
2023-04-15T05:38:55.951Z,85.71
2023-04-15T05:40:00.743Z,85.78
2023-04-15T05:41:04.991Z,85.18
2023-04-15T05:42:09.405Z,85.40
2023-04-15T05:43:14.124Z,85.58
2023-04-15T05:44:18.925Z,85.18
2023-04-15T05:45:23.266Z,85.21
2023-04-15T05:46:27.721Z,85.14
2023-04-15T05:47:32.744Z,85.66
2023-04-15T05:48:37.186Z,84.91
2023-04-15T05:49:42.329Z,85.11
2023-04-15T05:50:46.836Z,84.72
2023-04-15T05:51:51.284Z,84.74
2023-04-15T05:52:55.512Z,84.95
2023-04-15T05:54:00.026Z,85.30
2023-04-15T05:55:04.268Z,85.35
2023-04-15T05:56:08.438Z,85.12
2023-04-15T05:57:12.762Z,84.73
2023-04-15T05:58:17.450Z,84.47
2023-04-15T05:59:21.885Z,84.93
2023-04-15T06:00:27.055Z,84.64
2023-04-15T06:01:32.196Z,84.54
2023-04-15T06:02:37.066Z,84.43
2023-04-15T06:03:42.003Z,84.51
2023-04-15T06:04:46.331Z,84.33
2023-04-15T06:05:50.553Z,84.67
2023-04-15T06:06:55.075Z,84.72
2023-04-15T06:07:59.793Z,84.30
2023-04-15T06:09:04.468Z,84.45
2023-04-15T06:10:09.320Z,84.68
2023-04-15T06:11:13.870Z,84.46
2023-04-15T06:12:17.866Z,84.97
2023-04-15T06:13:22.035Z,84.99
2023-04-15T06:14:26.408Z,84.82
2023-04-15T06:15:31.478Z,84.70
2023-04-15T06:16:37.767Z,84.87
2023-04-15T06:17:42.917Z,84.77
2023-04-15T06:18:47.774Z,84.53
2023-04-15T06:19:56.029Z,84.77
2023-04-15T06:21:00.712Z,84.87
2023-04-15T06:22:04.997Z,84.62
2023-04-15T06:23:09.610Z,84.13
2023-04-15T06:24:13.891Z,83.99
2023-04-15T06:25:18.651Z,83.98
2023-04-15T06:26:23.517Z,83.92
2023-04-15T06:27:27.906Z,83.96
2023-04-15T06:28:32.441Z,83.71
2023-04-15T06:29:36.998Z,84.03
2023-04-15T06:30:41.104Z,83.43
2023-04-15T06:31:45.383Z,83.51
2023-04-15T06:32:49.743Z,83.18
2023-04-15T06:33:53.746Z,82.64
2023-04-15T06:34:58.486Z,82.57
2023-04-15T06:36:03.410Z,81.92
2023-04-15T06:37:08.074Z,81.63
2023-04-15T06:38:12.892Z,81.34
2023-04-15T06:39:17.153Z,80.81
2023-04-15T06:40:21.500Z,80.68
2023-04-15T06:41:25.962Z,80.47
2023-04-15T06:42:30.157Z,80.21
2023-04-15T06:43:34.676Z,80.13
2023-04-15T06:44:39.252Z,80.00
2023-04-15T06:45:43.920Z,79.77
2023-04-15T06:46:48.423Z,79.74
2023-04-15T06:47:52.923Z,79.59
2023-04-15T06:48:57.489Z,79.32
2023-04-15T06:50:01.772Z,79.56
2023-04-15T06:51:06.401Z,79.73
2023-04-15T06:52:11.740Z,79.92
2023-04-15T06:53:16.526Z,80.73
2023-04-15T06:54:20.712Z,80.52
2023-04-15T06:55:24.863Z,80.41
2023-04-15T06:56:29.473Z,80.35
2023-04-15T06:57:35.153Z,80.44
2023-04-15T06:58:39.844Z,80.18
2023-04-15T06:59:44.262Z,80.11
2023-04-15T07:00:49.437Z,79.88
2023-04-15T07:01:54.294Z,79.68
2023-04-15T07:02:59.182Z,77.90
2023-04-15T07:04:03.739Z,74.50
2023-04-15T07:05:08.696Z,73.69
2023-04-15T07:06:14.024Z,72.45
2023-04-15T07:07:18.751Z,71.05
2023-04-15T07:08:23.829Z,70.52
2023-04-15T07:09:28.807Z,70.17
2023-04-15T07:10:33.982Z,68.61
2023-04-15T07:11:37.966Z,66.90
2023-04-15T07:12:42.849Z,65.13
2023-04-15T07:13:47.489Z,62.44
2023-04-15T07:14:52.277Z,59.80
2023-04-15T07:15:56.678Z,56.38
2023-04-15T07:17:01.256Z,53.07
2023-04-15T07:18:06.131Z,52.34
2023-04-15T07:19:10.707Z,50.06
2023-04-15T07:20:15.561Z,47.67
2023-04-15T07:21:20.172Z,46.17
2023-04-15T07:22:24.513Z,45.63
2023-04-15T07:23:29.213Z,47.06
2023-04-15T07:24:33.259Z,47.36
2023-04-15T07:25:37.919Z,46.47
2023-04-15T07:26:42.450Z,47.82
2023-04-15T07:27:47.070Z,47.46
2023-04-15T07:28:52.185Z,47.90
2023-04-15T07:29:57.515Z,47.14
2023-04-15T07:31:02.044Z,46.68
2023-04-15T07:32:06.611Z,45.48
2023-04-15T07:33:11.339Z,45.09
2023-04-15T07:34:15.675Z,44.45
2023-04-15T07:35:22.303Z,43.17
2023-04-15T07:36:26.892Z,42.05
2023-04-15T07:37:31.112Z,41.36
2023-04-15T07:38:35.334Z,40.68
2023-04-15T07:39:39.637Z,39.60
2023-04-15T07:40:44.310Z,40.44
2023-04-15T07:41:49.617Z,40.83
2023-04-15T07:42:54.369Z,41.97
2023-04-15T07:43:58.496Z,43.75
2023-04-15T07:45:02.472Z,45.95
2023-04-15T07:46:07.980Z,47.74
2023-04-15T07:47:12.958Z,47.14
2023-04-15T07:48:17.380Z,46.48
2023-04-15T07:49:22.391Z,47.30
2023-04-15T07:50:26.963Z,47.94
2023-04-15T07:51:31.303Z,49.83
2023-04-15T07:52:39.861Z,50.39
2023-04-15T07:53:45.171Z,51.06
2023-04-15T07:54:49.903Z,50.70
2023-04-15T07:55:54.666Z,48.91
2023-04-15T07:56:59.709Z,47.40
2023-04-15T07:58:03.894Z,48.03
2023-04-15T07:59:09.105Z,47.56
2023-04-15T08:00:14.166Z,48.10
2023-04-15T08:01:18.728Z,48.23
2023-04-15T08:02:23.889Z,48.87
2023-04-15T08:03:29.078Z,48.84
2023-04-15T08:04:34.725Z,49.24
2023-04-15T08:05:39.524Z,50.08
2023-04-15T08:06:43.881Z,50.99
2023-04-15T08:07:48.024Z,50.39
2023-04-15T08:08:53.035Z,50.68
2023-04-15T08:09:57.770Z,51.09
2023-04-15T08:11:02.310Z,52.17
2023-04-15T08:12:06.961Z,51.87
2023-04-15T08:13:11.445Z,51.18
2023-04-15T08:14:15.374Z,50.77
2023-04-15T08:15:19.590Z,50.94
2023-04-15T08:16:24.659Z,49.50
2023-04-15T08:17:29.400Z,47.98
2023-04-15T08:18:34.063Z,45.01
2023-04-15T08:19:38.347Z,44.48
2023-04-15T08:20:43.037Z,44.03
2023-04-15T08:21:47.933Z,42.54
2023-04-15T08:22:53.500Z,42.67
2023-04-15T08:23:57.687Z,43.74
2023-04-15T08:25:02.107Z,44.40
2023-04-15T08:26:06.316Z,45.44
2023-04-15T08:27:10.972Z,44.77
2023-04-15T08:28:15.037Z,43.32
2023-04-15T08:29:19.335Z,43.00
2023-04-15T08:30:23.380Z,42.46
2023-04-15T08:31:28.981Z,40.72
2023-04-15T08:32:33.304Z,38.96
2023-04-15T08:33:37.567Z,37.14
2023-04-15T08:34:41.986Z,36.30
2023-04-15T08:35:46.595Z,35.62
2023-04-15T08:36:51.043Z,35.33
2023-04-15T08:37:55.898Z,35.17
2023-04-15T08:39:02.393Z,32.57
2023-04-15T08:40:07.059Z,33.08
2023-04-15T08:41:14.464Z,32.10
2023-04-15T08:42:19.387Z,31.66
2023-04-15T08:43:29.310Z,31.17
2023-04-15T08:44:37.957Z,30.07
2023-04-15T08:45:41.973Z,29.14
2023-04-15T08:46:46.757Z,28.59
2023-04-15T08:47:51.669Z,29.06
2023-04-15T08:48:57.373Z,28.86
2023-04-15T08:50:01.675Z,28.48
2023-04-15T08:51:06.226Z,27.96
2023-04-15T08:52:11.123Z,28.73
2023-04-15T08:53:16.213Z,29.94
2023-04-15T08:54:20.434Z,30.93
2023-04-15T08:55:24.593Z,30.82
2023-04-15T08:56:28.718Z,31.13
2023-04-15T08:57:33.808Z,30.83
2023-04-15T08:58:38.520Z,29.59
2023-04-15T08:59:43.434Z,28.60
2023-04-15T09:00:49.712Z,28.02
2023-04-15T09:01:54.204Z,27.88
2023-04-15T09:02:58.387Z,27.46
2023-04-15T09:04:03.563Z,27.56
2023-04-15T09:05:08.483Z,27.14
2023-04-15T09:06:12.886Z,25.79
2023-04-15T09:07:17.896Z,26.49
2023-04-15T09:08:23.194Z,25.67
2023-04-15T09:09:28.023Z,24.65
2023-04-15T09:10:33.019Z,23.91
2023-04-15T09:11:37.389Z,23.93
2023-04-15T09:12:41.900Z,23.44
2023-04-15T09:13:47.154Z,22.93
2023-04-15T09:14:51.617Z,22.55
2023-04-15T09:15:56.768Z,22.61
2023-04-15T09:17:05.081Z,22.93
2023-04-15T09:18:09.737Z,22.29
2023-04-15T09:19:23.419Z,22.55
2023-04-15T09:20:27.915Z,21.91
2023-04-15T09:21:32.536Z,21.82
2023-04-15T09:22:38.318Z,21.38
2023-04-15T09:23:42.920Z,21.17
2023-04-15T09:24:47.684Z,20.07
2023-04-15T09:25:52.019Z,20.50
2023-04-15T09:26:57.173Z,20.35
2023-04-15T09:28:02.574Z,20.93
2023-04-15T09:29:10.590Z,20.76
2023-04-15T09:30:15.452Z,21.17
2023-04-15T09:31:19.833Z,21.20
2023-04-15T09:32:25.506Z,22.25
2023-04-15T09:33:30.594Z,21.42
2023-04-15T09:34:38.933Z,21.79
2023-04-15T09:35:43.374Z,21.30
2023-04-15T09:36:49.131Z,21.03
2023-04-15T09:37:55.533Z,20.85
2023-04-15T09:39:01.115Z,20.90
2023-04-15T09:40:06.326Z,21.18
2023-04-15T09:41:19.462Z,21.19
2023-04-15T09:42:27.911Z,20.03
2023-04-15T09:43:39.735Z,20.24
2023-04-15T09:44:44.493Z,19.65
2023-04-15T09:45:53.659Z,19.61
2023-04-15T09:46:58.265Z,19.71
2023-04-15T09:48:26.063Z,20.10
2023-04-15T09:49:30.959Z,19.75
2023-04-15T09:50:35.420Z,19.93
2023-04-15T09:51:39.933Z,19.52
2023-04-15T09:52:44.960Z,20.02
2023-04-15T09:53:49.353Z,20.08
2023-04-15T09:54:57.131Z,19.82
2023-04-15T09:56:04.408Z,19.87
2023-04-15T09:57:09.039Z,19.34
2023-04-15T09:58:39.862Z,20.70
2023-04-15T09:59:44.100Z,20.75
2023-04-15T10:00:48.801Z,21.07
2023-04-15T10:01:53.410Z,20.65
2023-04-15T10:02:58.307Z,21.09
2023-04-15T10:04:06.118Z,20.54
2023-04-15T10:05:15.267Z,20.71
2023-04-15T10:06:20.323Z,20.52
2023-04-15T10:07:25.176Z,20.33
2023-04-15T10:08:34.662Z,19.93
2023-04-15T10:09:39.324Z,19.85
2023-04-15T10:10:43.772Z,19.19
2023-04-15T10:11:48.524Z,19.55
2023-04-15T10:12:52.698Z,18.96
2023-04-15T10:13:57.241Z,19.11
2023-04-15T10:15:02.278Z,19.34
2023-04-15T10:16:08.195Z,19.66
2023-04-15T10:17:16.460Z,19.71
2023-04-15T10:18:21.649Z,19.08
2023-04-15T10:19:26.397Z,19.18
2023-04-15T10:20:31.364Z,19.32
2023-04-15T10:21:36.304Z,19.38
2023-04-15T10:22:42.272Z,18.95
2023-04-15T10:23:46.574Z,19.34
2023-04-15T10:24:51.779Z,18.45
2023-04-15T10:25:56.866Z,18.41
2023-04-15T10:27:01.466Z,18.58
2023-04-15T10:28:07.253Z,18.60
2023-04-15T10:29:11.251Z,19.30
2023-04-15T10:30:15.432Z,18.70
2023-04-15T10:31:20.886Z,18.42
2023-04-15T10:32:25.721Z,18.38
2023-04-15T10:33:29.760Z,18.26
2023-04-15T10:34:34.977Z,18.64
2023-04-15T10:35:39.854Z,19.34
2023-04-15T10:36:43.795Z,19.05
2023-04-15T10:37:48.199Z,19.09
2023-04-15T10:38:52.726Z,18.81
2023-04-15T10:39:57.444Z,18.87
2023-04-15T10:41:20.119Z,18.84
2023-04-15T10:42:24.985Z,20.17
2023-04-15T10:43:28.924Z,20.37
2023-04-15T10:44:33.881Z,19.99
2023-04-15T10:45:38.989Z,20.24
2023-04-15T10:46:43.942Z,20.92
2023-04-15T10:47:52.407Z,20.66
2023-04-15T10:48:56.645Z,20.89
2023-04-15T10:50:02.030Z,21.35
2023-04-15T10:51:06.299Z,21.54
2023-04-15T10:52:10.859Z,21.18
2023-04-15T10:53:21.875Z,21.41
2023-04-15T10:54:26.005Z,21.39
2023-04-15T10:55:33.225Z,21.33
2023-04-15T10:56:37.462Z,21.74
2023-04-15T10:57:42.068Z,21.64
2023-04-15T10:58:47.245Z,22.32
2023-04-15T11:00:01.739Z,22.37
2023-04-15T11:01:06.595Z,22.81
2023-04-15T11:02:11.185Z,22.91
2023-04-15T11:03:16.305Z,21.78
2023-04-15T11:04:40.946Z,22.60
2023-04-15T11:05:50.418Z,22.51
2023-04-15T11:07:06.691Z,23.10
2023-04-15T11:08:11.521Z,23.55
2023-04-15T11:09:48.769Z,22.90
2023-04-15T11:10:53.902Z,23.48
2023-04-15T11:12:11.963Z,24.23
2023-04-15T11:13:17.685Z,25.22
2023-04-15T11:14:23.191Z,24.48
2023-04-15T11:15:33.198Z,24.58
2023-04-15T11:16:45.766Z,23.80
2023-04-15T11:17:50.341Z,24.41
2023-04-15T11:18:56.557Z,25.71
2023-04-15T11:20:01.301Z,25.71
2023-04-15T11:21:06.276Z,25.67
2023-04-15T11:22:11.048Z,26.10
2023-04-15T11:23:16.091Z,25.59
2023-04-15T11:24:29.197Z,26.39
2023-04-15T11:25:34.624Z,26.25
2023-04-15T11:26:39.320Z,26.43
2023-04-15T11:27:44.139Z,26.26
2023-04-15T11:28:49.140Z,26.35
2023-04-15T11:29:54.150Z,27.47
2023-04-15T11:30:59.307Z,26.82
2023-04-15T11:32:08.579Z,27.18
2023-04-15T11:33:13.635Z,26.20
2023-04-15T11:34:23.764Z,26.95
2023-04-15T11:35:28.152Z,27.33
2023-04-15T11:36:32.946Z,26.86
2023-04-15T11:37:37.871Z,26.99
2023-04-15T11:38:45.947Z,27.37
2023-04-15T11:39:50.476Z,28.73
2023-04-15T11:40:55.120Z,29.04
2023-04-15T11:41:59.705Z,28.79
2023-04-15T11:43:06.465Z,28.50
2023-04-15T11:44:19.731Z,28.48
2023-04-15T11:45:24.309Z,28.37
2023-04-15T11:46:32.726Z,27.98
2023-04-15T11:47:38.053Z,28.01
2023-04-15T11:48:46.263Z,28.55
2023-04-15T11:49:50.654Z,29.13
2023-04-15T11:50:57.016Z,28.79
2023-04-15T11:52:01.132Z,27.70
2023-04-15T11:53:08.647Z,28.86
2023-04-15T11:54:12.193Z,28.51
2023-04-15T11:55:16.126Z,28.89
2023-04-15T11:56:23.170Z,29.49
2023-04-15T11:57:31.930Z,29.49
2023-04-15T11:58:35.643Z,29.33
2023-04-15T11:59:45.980Z,28.75
2023-04-15T12:00:50.387Z,28.41
2023-04-15T12:01:53.363Z,29.01
2023-04-15T12:03:12.929Z,29.34
2023-04-15T12:04:19.028Z,29.90
2023-04-15T12:05:23.566Z,30.04
2023-04-15T12:06:28.745Z,29.83
2023-04-15T12:07:33.253Z,30.35
2023-04-15T12:08:51.530Z,30.04
2023-04-15T12:09:58.122Z,30.31
2023-04-15T12:11:01.011Z,30.21
2023-04-15T12:12:04.319Z,29.71
2023-04-15T12:13:08.217Z,28.94
2023-04-15T12:14:17.637Z,29.27
2023-04-15T12:15:24.617Z,29.54
2023-04-15T12:16:29.020Z,29.25
2023-04-15T12:17:51.827Z,29.12
2023-04-15T12:19:00.180Z,28.78
2023-04-15T12:20:03.918Z,28.69
2023-04-15T12:21:12.315Z,27.80
2023-04-15T12:22:16.542Z,28.69
2023-04-15T12:23:22.620Z,28.37
2023-04-15T12:24:25.458Z,27.86
2023-04-15T12:25:37.212Z,27.87
2023-04-15T12:26:47.460Z,28.38
2023-04-15T12:27:54.079Z,28.21
2023-04-15T12:28:57.910Z,28.01
2023-04-15T12:30:06.500Z,28.06
2023-04-15T12:31:10.478Z,28.57
2023-04-15T12:32:14.034Z,29.62
2023-04-15T12:33:17.688Z,29.43
2023-04-15T12:34:27.699Z,29.84
2023-04-15T12:35:31.036Z,30.73
2023-04-15T12:36:37.667Z,31.09
2023-04-15T12:37:41.157Z,31.27
2023-04-15T12:38:44.490Z,31.37
2023-04-15T12:39:50.059Z,31.34
2023-04-15T12:40:53.656Z,31.36
2023-04-15T12:41:56.795Z,32.53
2023-04-15T12:42:59.713Z,32.76
2023-04-15T12:44:03.471Z,33.68
2023-04-15T12:45:07.404Z,33.88
2023-04-15T12:46:11.297Z,33.49
2023-04-15T12:47:14.676Z,33.64
2023-04-15T12:48:18.004Z,34.20
2023-04-15T12:49:24.485Z,34.79
2023-04-15T12:50:27.436Z,35.37
2023-04-15T12:51:30.352Z,35.85
2023-04-15T12:52:33.801Z,34.28
2023-04-15T12:53:37.924Z,34.35
2023-04-15T12:54:41.145Z,35.05
2023-04-15T12:55:44.147Z,35.01
2023-04-15T12:56:47.386Z,35.60
2023-04-15T12:57:50.416Z,35.96
2023-04-15T12:58:54.054Z,36.03
2023-04-15T12:59:57.444Z,36.85
2023-04-15T13:01:00.972Z,37.08
2023-04-15T13:02:04.569Z,36.78
2023-04-15T13:03:08.231Z,36.42
2023-04-15T13:04:12.204Z,37.02
2023-04-15T13:05:16.344Z,37.14
2023-04-15T13:06:19.813Z,38.17
2023-04-15T13:07:22.857Z,37.96
2023-04-15T13:08:26.606Z,39.25
2023-04-15T13:09:30.154Z,38.69
2023-04-15T13:10:33.591Z,38.06
2023-04-15T13:11:37.471Z,37.76
2023-04-15T13:12:40.833Z,37.76
2023-04-15T13:13:44.268Z,36.89
2023-04-15T13:14:47.808Z,36.74
2023-04-15T13:15:51.111Z,38.07
2023-04-15T13:16:55.074Z,39.01
2023-04-15T13:17:57.939Z,38.80
2023-04-15T13:19:01.575Z,38.42
2023-04-15T13:20:04.816Z,38.79
2023-04-15T13:21:08.242Z,39.62
2023-04-15T13:22:12.190Z,39.29
2023-04-15T13:23:15.611Z,39.41
2023-04-15T13:24:18.733Z,37.02
2023-04-15T13:25:22.046Z,36.50
2023-04-15T13:26:25.415Z,36.50
2023-04-15T13:27:28.312Z,36.99
2023-04-15T13:28:31.988Z,38.23
2023-04-15T13:29:35.485Z,38.56
2023-04-15T13:30:38.602Z,39.37
2023-04-15T13:31:41.993Z,38.39
2023-04-15T13:32:45.486Z,37.91
2023-04-15T13:33:49.103Z,39.19
2023-04-15T13:34:52.233Z,39.19
2023-04-15T13:35:55.779Z,40.21
2023-04-15T13:36:59.051Z,40.56
2023-04-15T13:38:02.238Z,40.78
2023-04-15T13:39:06.650Z,41.06
2023-04-15T13:40:10.382Z,41.34
2023-04-15T13:41:13.253Z,40.64
2023-04-15T13:42:16.489Z,40.06
2023-04-15T13:43:19.373Z,40.92
2023-04-15T13:44:22.402Z,40.55
2023-04-15T13:45:25.460Z,41.17
2023-04-15T13:46:28.199Z,41.04
2023-04-15T13:47:31.616Z,40.51
2023-04-15T13:48:35.194Z,40.32
2023-04-15T13:49:38.750Z,40.82
2023-04-15T13:50:46.270Z,41.31
2023-04-15T13:51:49.088Z,41.53
2023-04-15T13:52:52.150Z,42.32
2023-04-15T13:53:55.752Z,42.29
2023-04-15T13:55:07.315Z,42.67
2023-04-15T13:56:22.583Z,42.12
2023-04-15T13:57:26.508Z,42.16
2023-04-15T13:58:29.637Z,41.99
2023-04-15T13:59:33.966Z,42.81